Chester, New Hampshire
Current Conditions -  °F | °C
As of 8:53 PM on Monday 20 Oct 2014 (Local Time) from KMHT Reporting Station
Overcast Overcast  
Wind Chill: 52°   Ceiling: 11000
Heat Index: 52°   Visibility: 10mi
Dew Point: 34°   Wind: 7mph
Humidity: 50%   Direction: 190°S
Pressure: 29.98"   Gusts: NA
Location:  42.96°N, 71.26°W
Report Text: KMHT 210053Z 19006KT 10SM FEW085 OVC110 11/01 A2998 RMK AO2 SLP167 T01110011
Loading
Personal Weather Stations






























Interactive Weather Map
Tropical Storm Tracking
New forecast layout! Learn more

10-Day Weather Forecast

Advertisements
Track Severe Weather on mobile